Impacts TAF Board INFO
FOR SITUATIONAL AWARENESS. NOT TO BE USED FOR FLIGHT PLANNING PURPOSES.
IDs:

KLGA - New York/La Guardia, NY, US

Issued at 0308 UTC 20 Feb 2018
Updated at 0353 UTC 20 Feb 2018
Potential Impact None Slight Moderate High
Time0349Z 20/04Z 20/05Z 20/06Z 20/07Z 20/08Z 20/09Z 20/10Z 20/11Z 20/12Z 20/13Z 20/14Z 20/15Z 20/16Z>>
Type OBS PRVL
  [TEMP]  
PRVL
  [TEMP]  
PRVL PRVL PRVL PRVL PRVL PRVL PRVL PRVL PRVL PRVL PRVL
VIS 0.25 1
  [0.5]  
1
  [0.5]  
0.5 0.5 0.5 0.5 0.5 0.5 0.5 0.5 3 3 6
CIG 3 4
  [2]  
4
  [2]  
2 2 2 2 2 2 2 2 7 7 15
Cover OVC OVC
  [OVX]  
OVC
  [OVX]  
OVX OVX OVX OVX OVX OVX OVX OVX BKN BKN BKN
FltCat LIFR LIFR
  [LIFR]  
LIFR
  [LIFR]  
LIFR LIFR LIFR LIFR LIFR LIFR LIFR LIFR IFR IFR MVFR
WX -DZ BR -DZ BR
  [-DZ FG]  
-DZ BR
  [-DZ FG]  
-DZ FG -DZ FG -DZ FG -DZ FG -DZ FG -DZ FG -DZ FG -DZ FG BR BR BR
WDir VRB 180
[180]
180
[180]
190 190 190 190 190 190 190 190 210 210 220
WSpd 0 3
  [3]  
3
  [3]  
3 3 3 3 3 3 3 3 7 7 10
WGst -- --
  [--]  
--
  [--]  
-- -- -- -- -- -- -- -- -- -- --

Raw TAF
KLGA 200308Z 2003/2106 18003KT 1SM -DZ BR OVC004 WS020/23035KT
  TEMPO 2003/2006 1/2SM -DZ FG VV002
  FM200600 19003KT 1/2SM -DZ FG VV002 WS020/23035KT
  FM201400 21007KT 3SM BR BKN007
  FM201600 22010KT 6SM BR SCT007 BKN015
  FM201800 22010KT P6SM SCT015 SCT025 BKN250
  FM202100 19012G17KT P6SM FEW015 SCT025 BKN250
  FM210000 20008KT P6SM SCT015 BKN250
  FM210400 21007KT 3SM BR SCT007 BKN015


Raw METAR
KLGA 200349Z 00000KT 1/4SM R04/P6000FT -DZ BR OVC003 08/07 A3033 RMK AO2 SFC VIS 3/4 DZB41 P0000 $
KLGA 200340Z 00000KT 1/2SM R04/P6000FT BR OVC003 08/07 A3033 RMK AO2 SFC VIS 1 T00830072 $
KLGA 200328Z VRB03KT 1 1/2SM BR OVC004 09/07 A3033 RMK AO2 SFC VIS 2 T00890072 $
KLGA 200305Z 15004KT 1 1/2SM BR OVC005 08/07 A3033 RMK AO2 SFC VIS 2 T00830072 $
KLGA 200251Z 14004KT 1SM R04/P6000FT BR OVC006 08/07 A3033 RMK AO2 SFC VIS 3 RAE0155 SLP270 P0000 60002 T00830072 58005 $
KLGA 200237Z 14004KT 1SM R04/P6000FT BR OVC007 08/07 A3033 RMK AO2 SFC VIS 3 RAE0155 P0000 T00830067 $
KLGA 200219Z 13005KT 1SM R04/P6000FT BR OVC009 08/07 A3033 RMK AO2 SFC VIS 3 RAE0155 P0000 T00830067 $
KLGA 200151Z 15005KT 2 1/2SM -RA BR SCT007 OVC010 08/07 A3034 RMK AO2 SFC VIS 3 SLP275 P0002 T00830067 $
KLGA 200148Z 14006KT 2 1/2SM -RA BR SCT007 OVC010 08/07 A3035 RMK AO2 SFC VIS 3 P0002 $
KLGA 200114Z 17003KT 9SM -RA BKN011 OVC016 08/07 A3035 RMK AO2 P0001 T00830067 $
KLGA 200051Z 18004KT 10SM -RA OVC018 08/07 A3035 RMK AO2 SLP276 RAB28 P0000 T00830067 $

METAR Board
Radar Display
Forecast Discussion

FOR SITUATIONAL AWARENESS. NOT TO BE USED FOR FLIGHT PLANNING PURPOSES.